sensor_id;sensor_type;location;lat;lon;timestamp;temperature;humidity
14142;DHT22;7151;52.246;4.820;2022-07-24T00:01:30;25.20;56.00
14142;DHT22;7151;52.246;4.820;2022-07-24T00:03:56;25.10;55.90
14142;DHT22;7151;52.246;4.820;2022-07-24T00:06:22;25.10;56.00
14142;DHT22;7151;52.246;4.820;2022-07-24T00:08:47;25.10;56.10
14142;DHT22;7151;52.246;4.820;2022-07-24T00:11:13;25.10;56.10
14142;DHT22;7151;52.246;4.820;2022-07-24T00:13:39;25.00;56.90
14142;DHT22;7151;52.246;4.820;2022-07-24T00:16:05;25.00;56.20
14142;DHT22;7151;52.246;4.820;2022-07-24T00:18:30;25.00;56.30
14142;DHT22;7151;52.246;4.820;2022-07-24T00:20:56;25.00;56.40
14142;DHT22;7151;52.246;4.820;2022-07-24T00:23:22;24.90;56.30
14142;DHT22;7151;52.246;4.820;2022-07-24T00:25:49;24.90;56.40
14142;DHT22;7151;52.246;4.820;2022-07-24T00:28:14;24.90;56.50
14142;DHT22;7151;52.246;4.820;2022-07-24T00:30:40;24.90;56.50
14142;DHT22;7151;52.246;4.820;2022-07-24T00:33:06;24.80;56.50
14142;DHT22;7151;52.246;4.820;2022-07-24T00:35:31;24.80;56.50
14142;DHT22;7151;52.246;4.820;2022-07-24T00:37:57;24.80;56.50
14142;DHT22;7151;52.246;4.820;2022-07-24T00:40:23;24.80;56.60
14142;DHT22;7151;52.246;4.820;2022-07-24T00:42:50;24.70;56.70
14142;DHT22;7151;52.246;4.820;2022-07-24T00:45:15;24.70;56.80
14142;DHT22;7151;52.246;4.820;2022-07-24T00:47:41;24.70;56.80
14142;DHT22;7151;52.246;4.820;2022-07-24T00:50:07;24.70;56.90
14142;DHT22;7151;52.246;4.820;2022-07-24T00:52:33;24.70;56.90
14142;DHT22;7151;52.246;4.820;2022-07-24T00:54:58;24.70;57.60
14142;DHT22;7151;52.246;4.820;2022-07-24T00:57:24;24.70;57.00
14142;DHT22;7151;52.246;4.820;2022-07-24T00:59:50;24.60;57.00
14142;DHT22;7151;52.246;4.820;2022-07-24T01:02:15;24.60;57.10
14142;DHT22;7151;52.246;4.820;2022-07-24T01:04:41;24.60;57.10
14142;DHT22;7151;52.246;4.820;2022-07-24T01:07:07;24.60;57.20
14142;DHT22;7151;52.246;4.820;2022-07-24T01:09:34;24.50;57.70
14142;DHT22;7151;52.246;4.820;2022-07-24T01:12:01;24.50;57.20
14142;DHT22;7151;52.246;4.820;2022-07-24T01:14:27;24.50;57.20
14142;DHT22;7151;52.246;4.820;2022-07-24T01:16:53;24.40;57.20
14142;DHT22;7151;52.246;4.820;2022-07-24T01:19:18;24.40;57.30
14142;DHT22;7151;52.246;4.820;2022-07-24T01:21:48;24.40;57.30
14142;DHT22;7151;52.246;4.820;2022-07-24T01:24:14;24.40;57.50
14142;DHT22;7151;52.246;4.820;2022-07-24T01:26:40;24.30;57.40
14142;DHT22;7151;52.246;4.820;2022-07-24T01:29:06;24.30;57.50
14142;DHT22;7151;52.246;4.820;2022-07-24T01:31:31;24.30;57.50
14142;DHT22;7151;52.246;4.820;2022-07-24T01:33:57;24.30;57.50
14142;DHT22;7151;52.246;4.820;2022-07-24T01:36:22;24.20;57.60
14142;DHT22;7151;52.246;4.820;2022-07-24T01:38:48;24.20;57.50
14142;DHT22;7151;52.246;4.820;2022-07-24T01:41:14;24.20;57.60
14142;DHT22;7151;52.246;4.820;2022-07-24T01:43:39;24.20;57.70
14142;DHT22;7151;52.246;4.820;2022-07-24T01:46:05;24.10;57.70
14142;DHT22;7151;52.246;4.820;2022-07-24T01:48:30;24.10;57.80
14142;DHT22;7151;52.246;4.820;2022-07-24T01:50:56;24.10;57.80
14142;DHT22;7151;52.246;4.820;2022-07-24T01:53:21;24.10;57.90
14142;DHT22;7151;52.246;4.820;2022-07-24T01:55:49;24.10;58.00
14142;DHT22;7151;52.246;4.820;2022-07-24T01:58:15;24.00;58.50
14142;DHT22;7151;52.246;4.820;2022-07-24T02:00:41;24.00;58.00
14142;DHT22;7151;52.246;4.820;2022-07-24T02:03:07;24.00;58.10
14142;DHT22;7151;52.246;4.820;2022-07-24T02:05:32;24.00;58.10
14142;DHT22;7151;52.246;4.820;2022-07-24T02:07:59;24.00;58.20
14142;DHT22;7151;52.246;4.820;2022-07-24T02:10:27;24.00;58.20
14142;DHT22;7151;52.246;4.820;2022-07-24T02:12:52;23.90;58.30
14142;DHT22;7151;52.246;4.820;2022-07-24T02:15:18;23.90;58.40
14142;DHT22;7151;52.246;4.820;2022-07-24T02:17:51;23.90;58.50
14142;DHT22;7151;52.246;4.820;2022-07-24T02:20:17;23.90;58.60
14142;DHT22;7151;52.246;4.820;2022-07-24T02:22:43;23.90;58.70
14142;DHT22;7151;52.246;4.820;2022-07-24T02:25:10;23.90;58.70
14142;DHT22;7151;52.246;4.820;2022-07-24T02:27:36;23.90;58.80
14142;DHT22;7151;52.246;4.820;2022-07-24T02:30:03;24.00;58.90
14142;DHT22;7151;52.246;4.820;2022-07-24T02:32:29;23.90;58.90
14142;DHT22;7151;52.246;4.820;2022-07-24T02:34:54;23.90;58.90
14142;DHT22;7151;52.246;4.820;2022-07-24T02:37:20;23.90;59.00
14142;DHT22;7151;52.246;4.820;2022-07-24T02:39:45;23.90;59.00
14142;DHT22;7151;52.246;4.820;2022-07-24T02:42:11;24.00;59.20
14142;DHT22;7151;52.246;4.820;2022-07-24T02:44:36;23.90;59.20
14142;DHT22;7151;52.246;4.820;2022-07-24T02:47:02;23.90;59.20
14142;DHT22;7151;52.246;4.820;2022-07-24T02:49:27;23.90;59.30
14142;DHT22;7151;52.246;4.820;2022-07-24T02:51:53;23.90;59.30
14142;DHT22;7151;52.246;4.820;2022-07-24T02:54:18;23.80;59.30
14142;DHT22;7151;52.246;4.820;2022-07-24T02:56:44;23.90;59.50
14142;DHT22;7151;52.246;4.820;2022-07-24T02:59:09;23.80;59.50
14142;DHT22;7151;52.246;4.820;2022-07-24T03:01:35;23.80;59.50
14142;DHT22;7151;52.246;4.820;2022-07-24T03:04:00;23.80;59.60
14142;DHT22;7151;52.246;4.820;2022-07-24T03:06:26;23.80;59.60
14142;DHT22;7151;52.246;4.820;2022-07-24T03:08:52;23.80;59.60
14142;DHT22;7151;52.246;4.820;2022-07-24T03:11:17;23.80;59.70
14142;DHT22;7151;52.246;4.820;2022-07-24T03:13:43;23.80;59.70
14142;DHT22;7151;52.246;4.820;2022-07-24T03:16:08;23.80;59.80
14142;DHT22;7151;52.246;4.820;2022-07-24T03:18:35;23.80;59.80
14142;DHT22;7151;52.246;4.820;2022-07-24T03:21:00;23.80;59.90
14142;DHT22;7151;52.246;4.820;2022-07-24T03:23:26;23.80;59.90
14142;DHT22;7151;52.246;4.820;2022-07-24T03:25:51;23.80;59.90
14142;DHT22;7151;52.246;4.820;2022-07-24T03:28:18;23.80;60.70
14142;DHT22;7151;52.246;4.820;2022-07-24T03:30:44;23.70;60.00
14142;DHT22;7151;52.246;4.820;2022-07-24T03:33:09;23.70;60.00
14142;DHT22;7151;52.246;4.820;2022-07-24T03:35:35;23.70;60.00
14142;DHT22;7151;52.246;4.820;2022-07-24T03:38:00;23.70;60.00
14142;DHT22;7151;52.246;4.820;2022-07-24T03:40:26;23.70;60.00
14142;DHT22;7151;52.246;4.820;2022-07-24T03:42:51;23.70;60.00
14142;DHT22;7151;52.246;4.820;2022-07-24T03:45:17;23.60;59.90
14142;DHT22;7151;52.246;4.820;2022-07-24T03:47:43;23.60;59.90
14142;DHT22;7151;52.246;4.820;2022-07-24T03:50:08;23.60;60.00
14142;DHT22;7151;52.246;4.820;2022-07-24T03:52:34;23.60;60.00
14142;DHT22;7151;52.246;4.820;2022-07-24T03:54:59;23.60;60.10
14142;DHT22;7151;52.246;4.820;2022-07-24T03:57:25;23.50;60.10
14142;DHT22;7151;52.246;4.820;2022-07-24T03:59:51;23.50;60.10
14142;DHT22;7151;52.246;4.820;2022-07-24T04:02:17;23.50;60.10
14142;DHT22;7151;52.246;4.820;2022-07-24T04:04:43;23.50;60.20
14142;DHT22;7151;52.246;4.820;2022-07-24T04:07:08;23.50;60.10
14142;DHT22;7151;52.246;4.820;2022-07-24T04:09:34;23.40;60.10
14142;DHT22;7151;52.246;4.820;2022-07-24T04:12:00;23.40;60.20
14142;DHT22;7151;52.246;4.820;2022-07-24T04:14:25;23.40;60.30
14142;DHT22;7151;52.246;4.820;2022-07-24T04:16:51;23.40;60.40
14142;DHT22;7151;52.246;4.820;2022-07-24T04:19:17;23.40;60.50
14142;DHT22;7151;52.246;4.820;2022-07-24T04:21:42;23.30;60.60
14142;DHT22;7151;52.246;4.820;2022-07-24T04:24:08;23.30;60.70
14142;DHT22;7151;52.246;4.820;2022-07-24T04:26:33;23.30;60.80
14142;DHT22;7151;52.246;4.820;2022-07-24T04:28:59;23.30;60.90
14142;DHT22;7151;52.246;4.820;2022-07-24T04:31:24;23.30;61.10
14142;DHT22;7151;52.246;4.820;2022-07-24T04:33:50;23.30;61.20
14142;DHT22;7151;52.246;4.820;2022-07-24T04:36:15;23.20;61.20
14142;DHT22;7151;52.246;4.820;2022-07-24T04:38:41;23.20;61.30
14142;DHT22;7151;52.246;4.820;2022-07-24T04:41:07;23.20;61.50
14142;DHT22;7151;52.246;4.820;2022-07-24T04:43:32;23.20;61.60
14142;DHT22;7151;52.246;4.820;2022-07-24T04:45:59;23.20;61.70
14142;DHT22;7151;52.246;4.820;2022-07-24T04:48:24;23.20;61.90
14142;DHT22;7151;52.246;4.820;2022-07-24T04:50:52;23.20;62.00
14142;DHT22;7151;52.246;4.820;2022-07-24T04:53:18;23.20;62.10
14142;DHT22;7151;52.246;4.820;2022-07-24T04:55:44;23.20;62.10
14142;DHT22;7151;52.246;4.820;2022-07-24T04:58:09;23.20;62.20
14142;DHT22;7151;52.246;4.820;2022-07-24T05:00:35;23.20;62.20
14142;DHT22;7151;52.246;4.820;2022-07-24T05:03:00;23.20;62.30
14142;DHT22;7151;52.246;4.820;2022-07-24T05:05:26;23.20;62.30
14142;DHT22;7151;52.246;4.820;2022-07-24T05:07:51;23.30;62.40
14142;DHT22;7151;52.246;4.820;2022-07-24T05:10:17;23.30;62.60
14142;DHT22;7151;52.246;4.820;2022-07-24T05:12:43;23.30;62.70
14142;DHT22;7151;52.246;4.820;2022-07-24T05:15:09;23.30;62.70
14142;DHT22;7151;52.246;4.820;2022-07-24T05:17:35;23.30;62.80
14142;DHT22;7151;52.246;4.820;2022-07-24T05:20:01;23.30;62.80
14142;DHT22;7151;52.246;4.820;2022-07-24T05:22:27;23.30;62.80
14142;DHT22;7151;52.246;4.820;2022-07-24T05:24:53;23.30;62.80
14142;DHT22;7151;52.246;4.820;2022-07-24T05:27:18;23.30;62.80
14142;DHT22;7151;52.246;4.820;2022-07-24T05:29:44;23.30;62.80
14142;DHT22;7151;52.246;4.820;2022-07-24T05:32:12;23.30;62.70
14142;DHT22;7151;52.246;4.820;2022-07-24T05:34:38;23.30;62.80
14142;DHT22;7151;52.246;4.820;2022-07-24T05:37:03;23.30;62.70
14142;DHT22;7151;52.246;4.820;2022-07-24T05:39:29;23.30;62.80
14142;DHT22;7151;52.246;4.820;2022-07-24T05:41:55;23.30;62.70
14142;DHT22;7151;52.246;4.820;2022-07-24T05:44:20;23.30;62.70
14142;DHT22;7151;52.246;4.820;2022-07-24T05:46:46;23.30;62.70
14142;DHT22;7151;52.246;4.820;2022-07-24T05:49:11;23.30;62.80
14142;DHT22;7151;52.246;4.820;2022-07-24T05:51:37;23.30;62.90
14142;DHT22;7151;52.246;4.820;2022-07-24T05:54:03;23.30;62.90
14142;DHT22;7151;52.246;4.820;2022-07-24T05:56:29;23.30;62.80
14142;DHT22;7151;52.246;4.820;2022-07-24T05:58:54;23.30;63.00
14142;DHT22;7151;52.246;4.820;2022-07-24T06:01:20;23.30;63.00
14142;DHT22;7151;52.246;4.820;2022-07-24T06:03:45;23.40;63.10
14142;DHT22;7151;52.246;4.820;2022-07-24T06:06:11;23.40;63.10
14142;DHT22;7151;52.246;4.820;2022-07-24T06:08:36;23.30;63.00
14142;DHT22;7151;52.246;4.820;2022-07-24T06:11:02;23.30;63.30
14142;DHT22;7151;52.246;4.820;2022-07-24T06:13:27;23.40;63.50
14142;DHT22;7151;52.246;4.820;2022-07-24T06:15:53;23.30;63.60
14142;DHT22;7151;52.246;4.820;2022-07-24T06:18:19;23.40;63.70
14142;DHT22;7151;52.246;4.820;2022-07-24T06:20:44;23.40;63.70
14142;DHT22;7151;52.246;4.820;2022-07-24T06:23:10;23.40;63.70
14142;DHT22;7151;52.246;4.820;2022-07-24T06:25:35;23.50;63.90
14142;DHT22;7151;52.246;4.820;2022-07-24T06:28:01;23.50;63.90
14142;DHT22;7151;52.246;4.820;2022-07-24T06:30:27;23.50;63.90
14142;DHT22;7151;52.246;4.820;2022-07-24T06:32:56;23.50;63.60
14142;DHT22;7151;52.246;4.820;2022-07-24T06:35:23;23.60;63.70
14142;DHT22;7151;52.246;4.820;2022-07-24T06:37:49;23.60;63.90
14142;DHT22;7151;52.246;4.820;2022-07-24T06:40:16;23.70;64.10
14142;DHT22;7151;52.246;4.820;2022-07-24T06:42:41;23.70;64.10
14142;DHT22;7151;52.246;4.820;2022-07-24T06:45:07;23.60;63.90
14142;DHT22;7151;52.246;4.820;2022-07-24T06:47:33;23.80;64.00
14142;DHT22;7151;52.246;4.820;2022-07-24T06:49:59;23.80;63.90
14142;DHT22;7151;52.246;4.820;2022-07-24T06:52:24;23.90;63.80
14142;DHT22;7151;52.246;4.820;2022-07-24T06:54:50;23.80;63.50
14142;DHT22;7151;52.246;4.820;2022-07-24T06:57:15;23.90;63.60
14142;DHT22;7151;52.246;4.820;2022-07-24T06:59:42;23.90;63.50
14142;DHT22;7151;52.246;4.820;2022-07-24T07:02:07;24.00;63.50
14142;DHT22;7151;52.246;4.820;2022-07-24T07:04:33;24.00;63.30
14142;DHT22;7151;52.246;4.820;2022-07-24T07:06:59;24.00;63.20
14142;DHT22;7151;52.246;4.820;2022-07-24T07:09:24;24.00;63.00
14142;DHT22;7151;52.246;4.820;2022-07-24T07:11:50;24.00;62.80
14142;DHT22;7151;52.246;4.820;2022-07-24T07:14:16;24.00;62.60
14142;DHT22;7151;52.246;4.820;2022-07-24T07:16:41;24.10;62.50
14142;DHT22;7151;52.246;4.820;2022-07-24T07:19:07;24.10;62.30
14142;DHT22;7151;52.246;4.820;2022-07-24T07:21:32;24.10;62.10
14142;DHT22;7151;52.246;4.820;2022-07-24T07:23:58;24.10;61.60
14142;DHT22;7151;52.246;4.820;2022-07-24T07:26:24;24.20;61.50
14142;DHT22;7151;52.246;4.820;2022-07-24T07:28:49;24.30;61.40
14142;DHT22;7151;52.246;4.820;2022-07-24T07:31:15;24.30;61.20
14142;DHT22;7151;52.246;4.820;2022-07-24T07:33:40;24.30;61.20
14142;DHT22;7151;52.246;4.820;2022-07-24T07:36:06;24.40;61.20
14142;DHT22;7151;52.246;4.820;2022-07-24T07:38:34;24.40;61.00
14142;DHT22;7151;52.246;4.820;2022-07-24T07:41:00;24.40;60.80
14142;DHT22;7151;52.246;4.820;2022-07-24T07:43:26;24.40;60.70
14142;DHT22;7151;52.246;4.820;2022-07-24T07:45:51;24.40;60.70
14142;DHT22;7151;52.246;4.820;2022-07-24T07:48:17;24.50;60.70
14142;DHT22;7151;52.246;4.820;2022-07-24T07:50:43;24.50;60.70
14142;DHT22;7151;52.246;4.820;2022-07-24T07:53:08;24.50;60.60
14142;DHT22;7151;52.246;4.820;2022-07-24T07:55:34;24.50;60.40
14142;DHT22;7151;52.246;4.820;2022-07-24T07:58:00;24.60;60.30
14142;DHT22;7151;52.246;4.820;2022-07-24T08:00:26;24.60;60.30
14142;DHT22;7151;52.246;4.820;2022-07-24T08:02:51;24.60;60.20
14142;DHT22;7151;52.246;4.820;2022-07-24T08:05:17;24.70;60.30
14142;DHT22;7151;52.246;4.820;2022-07-24T08:07:42;24.70;60.20
14142;DHT22;7151;52.246;4.820;2022-07-24T08:10:08;24.70;60.00
14142;DHT22;7151;52.246;4.820;2022-07-24T08:12:33;24.80;59.90
14142;DHT22;7151;52.246;4.820;2022-07-24T08:14:59;24.80;59.80
14142;DHT22;7151;52.246;4.820;2022-07-24T08:17:24;24.80;59.70
14142;DHT22;7151;52.246;4.820;2022-07-24T08:19:50;24.90;60.00
14142;DHT22;7151;52.246;4.820;2022-07-24T08:22:15;25.00;60.10
14142;DHT22;7151;52.246;4.820;2022-07-24T08:24:41;25.10;60.20
14142;DHT22;7151;52.246;4.820;2022-07-24T08:27:07;25.20;59.90
14142;DHT22;7151;52.246;4.820;2022-07-24T08:29:32;25.40;59.50
14142;DHT22;7151;52.246;4.820;2022-07-24T08:31:58;25.50;59.00
14142;DHT22;7151;52.246;4.820;2022-07-24T08:34:24;25.50;58.70
14142;DHT22;7151;52.246;4.820;2022-07-24T08:36:50;25.60;58.20
14142;DHT22;7151;52.246;4.820;2022-07-24T08:39:16;25.60;58.00
14142;DHT22;7151;52.246;4.820;2022-07-24T08:41:43;25.60;58.00
14142;DHT22;7151;52.246;4.820;2022-07-24T08:44:09;25.60;58.00
14142;DHT22;7151;52.246;4.820;2022-07-24T08:46:37;25.70;57.90
14142;DHT22;7151;52.246;4.820;2022-07-24T08:49:11;25.70;57.70
14142;DHT22;7151;52.246;4.820;2022-07-24T08:51:38;25.80;57.60
14142;DHT22;7151;52.246;4.820;2022-07-24T08:54:05;25.80;57.60
14142;DHT22;7151;52.246;4.820;2022-07-24T08:56:31;25.80;57.60
14142;DHT22;7151;52.246;4.820;2022-07-24T08:58:59;25.90;57.50
14142;DHT22;7151;52.246;4.820;2022-07-24T09:01:25;25.90;57.40
14142;DHT22;7151;52.246;4.820;2022-07-24T09:03:51;25.90;58.10
14142;DHT22;7151;52.246;4.820;2022-07-24T09:06:16;26.00;57.70
14142;DHT22;7151;52.246;4.820;2022-07-24T09:08:56;26.00;57.30
14142;DHT22;7151;52.246;4.820;2022-07-24T09:11:21;26.10;57.10
14142;DHT22;7151;52.246;4.820;2022-07-24T09:13:51;26.10;57.10
14142;DHT22;7151;52.246;4.820;2022-07-24T09:16:36;26.20;56.90
14142;DHT22;7151;52.246;4.820;2022-07-24T09:19:08;26.20;56.70
14142;DHT22;7151;52.246;4.820;2022-07-24T09:21:37;26.20;56.60
14142;DHT22;7151;52.246;4.820;2022-07-24T09:24:20;26.30;56.70
14142;DHT22;7151;52.246;4.820;2022-07-24T09:26:47;26.30;56.50
14142;DHT22;7151;52.246;4.820;2022-07-24T09:29:13;26.40;56.50
14142;DHT22;7151;52.246;4.820;2022-07-24T09:31:59;26.40;56.30
14142;DHT22;7151;52.246;4.820;2022-07-24T09:34:27;26.50;56.10
14142;DHT22;7151;52.246;4.820;2022-07-24T09:36:57;26.50;55.90
14142;DHT22;7151;52.246;4.820;2022-07-24T09:39:24;26.50;55.90
14142;DHT22;7151;52.246;4.820;2022-07-24T09:41:55;26.60;55.90
14142;DHT22;7151;52.246;4.820;2022-07-24T09:44:21;26.60;55.60
14142;DHT22;7151;52.246;4.820;2022-07-24T09:47:00;26.70;55.80
14142;DHT22;7151;52.246;4.820;2022-07-24T09:49:28;26.70;55.70
14142;DHT22;7151;52.246;4.820;2022-07-24T09:54:49;26.80;55.40
14142;DHT22;7151;52.246;4.820;2022-07-24T09:57:26;26.90;55.10
14142;DHT22;7151;52.246;4.820;2022-07-24T10:02:20;27.00;54.90
14142;DHT22;7151;52.246;4.820;2022-07-24T10:04:46;27.10;54.90
14142;DHT22;7151;52.246;4.820;2022-07-24T10:07:14;27.10;54.90
14142;DHT22;7151;52.246;4.820;2022-07-24T10:09:45;27.20;54.90
14142;DHT22;7151;52.246;4.820;2022-07-24T10:12:17;27.30;54.50
14142;DHT22;7151;52.246;4.820;2022-07-24T10:14:45;27.30;54.50
14142;DHT22;7151;52.246;4.820;2022-07-24T10:17:12;27.40;54.30
14142;DHT22;7151;52.246;4.820;2022-07-24T10:19:48;27.50;54.30
14142;DHT22;7151;52.246;4.820;2022-07-24T10:22:16;27.60;54.10
14142;DHT22;7151;52.246;4.820;2022-07-24T10:27:36;27.60;54.30
14142;DHT22;7151;52.246;4.820;2022-07-24T10:30:07;27.70;53.70
14142;DHT22;7151;52.246;4.820;2022-07-24T10:32:34;27.70;53.90
14142;DHT22;7151;52.246;4.820;2022-07-24T10:35:02;27.80;53.50
14142;DHT22;7151;52.246;4.820;2022-07-24T10:40:24;28.00;53.40
14142;DHT22;7151;52.246;4.820;2022-07-24T10:45:35;28.10;53.10
14142;DHT22;7151;52.246;4.820;2022-07-24T10:51:06;28.20;52.70
14142;DHT22;7151;52.246;4.820;2022-07-24T11:04:02;28.50;52.20
14142;DHT22;7151;52.246;4.820;2022-07-24T11:09:10;28.60;51.60
14142;DHT22;7151;52.246;4.820;2022-07-24T11:12:03;28.70;51.60
14142;DHT22;7151;52.246;4.820;2022-07-24T11:17:41;28.80;51.10
14142;DHT22;7151;52.246;4.820;2022-07-24T11:22:44;29.00;51.10
14142;DHT22;7151;52.246;4.820;2022-07-24T11:25:15;29.10;50.90
14142;DHT22;7151;52.246;4.820;2022-07-24T11:30:33;29.20;50.20
14142;DHT22;7151;52.246;4.820;2022-07-24T11:32:59;29.30;50.20
14142;DHT22;7151;52.246;4.820;2022-07-24T11:35:36;29.30;49.90
14142;DHT22;7151;52.246;4.820;2022-07-24T11:38:04;29.40;49.60
14142;DHT22;7151;52.246;4.820;2022-07-24T11:40:30;29.40;49.60
14142;DHT22;7151;52.246;4.820;2022-07-24T11:42:57;29.50;49.40
14142;DHT22;7151;52.246;4.820;2022-07-24T11:45:23;29.50;49.20
14142;DHT22;7151;52.246;4.820;2022-07-24T11:47:49;29.60;49.70
14142;DHT22;7151;52.246;4.820;2022-07-24T11:50:19;29.70;48.90
14142;DHT22;7151;52.246;4.820;2022-07-24T11:52:45;29.80;48.60
14142;DHT22;7151;52.246;4.820;2022-07-24T11:55:13;29.80;48.50
14142;DHT22;7151;52.246;4.820;2022-07-24T11:57:43;29.90;48.40
14142;DHT22;7151;52.246;4.820;2022-07-24T12:00:17;29.90;48.40
14142;DHT22;7151;52.246;4.820;2022-07-24T12:02:56;30.00;48.00
14142;DHT22;7151;52.246;4.820;2022-07-24T12:05:27;30.10;48.00
14142;DHT22;7151;52.246;4.820;2022-07-24T12:07:58;30.20;48.10
14142;DHT22;7151;52.246;4.820;2022-07-24T12:10:25;30.30;48.30
14142;DHT22;7151;52.246;4.820;2022-07-24T12:12:53;30.40;48.10
14142;DHT22;7151;52.246;4.820;2022-07-24T12:15:23;30.40;47.70
14142;DHT22;7151;52.246;4.820;2022-07-24T12:17:54;30.50;47.40
14142;DHT22;7151;52.246;4.820;2022-07-24T12:20:22;30.60;47.30
14142;DHT22;7151;52.246;4.820;2022-07-24T12:22:48;30.70;47.10
14142;DHT22;7151;52.246;4.820;2022-07-24T12:25:14;30.70;47.00
14142;DHT22;7151;52.246;4.820;2022-07-24T12:27:43;30.80;46.90
14142;DHT22;7151;52.246;4.820;2022-07-24T12:30:29;30.80;46.70
14142;DHT22;7151;52.246;4.820;2022-07-24T12:35:34;31.00;46.80
14142;DHT22;7151;52.246;4.820;2022-07-24T12:38:00;31.00;46.70
14142;DHT22;7151;52.246;4.820;2022-07-24T12:40:37;31.10;46.50
14142;DHT22;7151;52.246;4.820;2022-07-24T12:43:10;31.20;46.30
14142;DHT22;7151;52.246;4.820;2022-07-24T12:45:36;31.30;46.40
14142;DHT22;7151;52.246;4.820;2022-07-24T12:48:07;31.40;46.30
14142;DHT22;7151;52.246;4.820;2022-07-24T12:50:33;31.50;46.60
14142;DHT22;7151;52.246;4.820;2022-07-24T12:53:06;31.50;45.90
14142;DHT22;7151;52.246;4.820;2022-07-24T12:55:32;31.60;45.80
14142;DHT22;7151;52.246;4.820;2022-07-24T12:58:03;31.70;45.90
14142;DHT22;7151;52.246;4.820;2022-07-24T13:00:29;31.80;46.10
14142;DHT22;7151;52.246;4.820;2022-07-24T13:02:56;31.80;46.00
14142;DHT22;7151;52.246;4.820;2022-07-24T13:05:38;31.90;45.80
14142;DHT22;7151;52.246;4.820;2022-07-24T13:08:05;32.00;45.60
14142;DHT22;7151;52.246;4.820;2022-07-24T13:10:30;32.10;45.60
14142;DHT22;7151;52.246;4.820;2022-07-24T13:12:56;32.20;45.50
14142;DHT22;7151;52.246;4.820;2022-07-24T13:15:21;32.30;45.40
14142;DHT22;7151;52.246;4.820;2022-07-24T13:17:47;32.30;45.20
14142;DHT22;7151;52.246;4.820;2022-07-24T13:20:12;32.40;45.00
14142;DHT22;7151;52.246;4.820;2022-07-24T13:22:38;32.40;44.60
14142;DHT22;7151;52.246;4.820;2022-07-24T13:25:04;32.50;44.50
14142;DHT22;7151;52.246;4.820;2022-07-24T13:27:30;32.50;44.90
14142;DHT22;7151;52.246;4.820;2022-07-24T13:29:55;32.60;44.70
14142;DHT22;7151;52.246;4.820;2022-07-24T13:32:21;32.70;44.50
14142;DHT22;7151;52.246;4.820;2022-07-24T13:34:46;32.80;44.10
14142;DHT22;7151;52.246;4.820;2022-07-24T13:37:12;32.80;43.90
14142;DHT22;7151;52.246;4.820;2022-07-24T13:39:37;32.80;44.10
14142;DHT22;7151;52.246;4.820;2022-07-24T13:42:05;32.90;43.90
14142;DHT22;7151;52.246;4.820;2022-07-24T13:44:31;33.00;43.80
14142;DHT22;7151;52.246;4.820;2022-07-24T13:46:57;33.00;43.80
14142;DHT22;7151;52.246;4.820;2022-07-24T13:49:22;33.10;43.40
14142;DHT22;7151;52.246;4.820;2022-07-24T13:51:48;33.20;43.40
14142;DHT22;7151;52.246;4.820;2022-07-24T13:54:14;33.20;43.30
14142;DHT22;7151;52.246;4.820;2022-07-24T13:56:39;33.30;43.00
14142;DHT22;7151;52.246;4.820;2022-07-24T13:59:05;33.30;43.50
14142;DHT22;7151;52.246;4.820;2022-07-24T14:01:31;33.40;43.20
14142;DHT22;7151;52.246;4.820;2022-07-24T14:03:57;33.50;43.00
14142;DHT22;7151;52.246;4.820;2022-07-24T14:06:22;33.50;42.90
14142;DHT22;7151;52.246;4.820;2022-07-24T14:08:48;33.60;42.70
14142;DHT22;7151;52.246;4.820;2022-07-24T14:11:14;33.70;42.50
14142;DHT22;7151;52.246;4.820;2022-07-24T14:13:39;33.70;42.30
14142;DHT22;7151;52.246;4.820;2022-07-24T14:16:05;33.80;42.30
14142;DHT22;7151;52.246;4.820;2022-07-24T14:18:31;33.80;42.30
14142;DHT22;7151;52.246;4.820;2022-07-24T14:20:57;33.90;42.40
14142;DHT22;7151;52.246;4.820;2022-07-24T14:23:22;34.00;42.10
14142;DHT22;7151;52.246;4.820;2022-07-24T14:25:48;34.10;42.10
14142;DHT22;7151;52.246;4.820;2022-07-24T14:28:14;34.20;42.10
14142;DHT22;7151;52.246;4.820;2022-07-24T14:30:40;34.30;42.00
14142;DHT22;7151;52.246;4.820;2022-07-24T14:33:06;34.30;41.50
14142;DHT22;7151;52.246;4.820;2022-07-24T14:35:31;34.40;41.40
14142;DHT22;7151;52.246;4.820;2022-07-24T14:37:57;34.50;41.20
14142;DHT22;7151;52.246;4.820;2022-07-24T14:40:23;34.50;41.00
14142;DHT22;7151;52.246;4.820;2022-07-24T14:42:49;34.50;41.00
14142;DHT22;7151;52.246;4.820;2022-07-24T14:45:15;34.60;40.90
14142;DHT22;7151;52.246;4.820;2022-07-24T14:47:40;34.60;40.70
14142;DHT22;7151;52.246;4.820;2022-07-24T14:50:07;34.70;40.90
14142;DHT22;7151;52.246;4.820;2022-07-24T14:52:34;34.80;40.90
14142;DHT22;7151;52.246;4.820;2022-07-24T14:55:00;34.80;40.90
14142;DHT22;7151;52.246;4.820;2022-07-24T14:57:26;34.90;40.70
14142;DHT22;7151;52.246;4.820;2022-07-24T14:59:52;35.00;40.60
14142;DHT22;7151;52.246;4.820;2022-07-24T15:02:17;35.10;40.50
14142;DHT22;7151;52.246;4.820;2022-07-24T15:04:43;35.20;40.60
14142;DHT22;7151;52.246;4.820;2022-07-24T15:07:09;35.20;40.50
14142;DHT22;7151;52.246;4.820;2022-07-24T15:09:34;35.30;40.30
14142;DHT22;7151;52.246;4.820;2022-07-24T15:12:00;35.40;40.00
14142;DHT22;7151;52.246;4.820;2022-07-24T15:14:26;35.50;39.90
14142;DHT22;7151;52.246;4.820;2022-07-24T15:16:52;35.60;39.90
14142;DHT22;7151;52.246;4.820;2022-07-24T15:19:17;35.60;39.60
14142;DHT22;7151;52.246;4.820;2022-07-24T15:21:43;35.60;39.40
14142;DHT22;7151;52.246;4.820;2022-07-24T15:24:09;35.60;39.20
14142;DHT22;7151;52.246;4.820;2022-07-24T15:26:35;35.60;39.70
14142;DHT22;7151;52.246;4.820;2022-07-24T15:29:01;35.60;40.00
14142;DHT22;7151;52.246;4.820;2022-07-24T15:31:27;35.60;39.80
14142;DHT22;7151;52.246;4.820;2022-07-24T15:33:52;35.60;39.70
14142;DHT22;7151;52.246;4.820;2022-07-24T15:36:18;35.50;39.40
14142;DHT22;7151;52.246;4.820;2022-07-24T15:38:43;35.50;39.30
14142;DHT22;7151;52.246;4.820;2022-07-24T15:41:09;35.40;39.20
14142;DHT22;7151;52.246;4.820;2022-07-24T15:43:35;35.30;39.00
14142;DHT22;7151;52.246;4.820;2022-07-24T15:46:01;35.20;39.60
14142;DHT22;7151;52.246;4.820;2022-07-24T15:48:26;35.10;39.30
14142;DHT22;7151;52.246;4.820;2022-07-24T15:50:52;35.00;39.50
14142;DHT22;7151;52.246;4.820;2022-07-24T15:53:17;35.00;39.60
14142;DHT22;7151;52.246;4.820;2022-07-24T15:55:43;34.90;39.50
14142;DHT22;7151;52.246;4.820;2022-07-24T15:58:08;34.80;39.30
14142;DHT22;7151;52.246;4.820;2022-07-24T16:00:34;34.80;39.40
14142;DHT22;7151;52.246;4.820;2022-07-24T16:03:00;34.70;39.40
14142;DHT22;7151;52.246;4.820;2022-07-24T16:05:26;34.70;39.60
14142;DHT22;7151;52.246;4.820;2022-07-24T16:07:53;34.60;39.60
14142;DHT22;7151;52.246;4.820;2022-07-24T16:10:21;34.60;39.70
14142;DHT22;7151;52.246;4.820;2022-07-24T16:12:47;34.50;39.50
14142;DHT22;7151;52.246;4.820;2022-07-24T16:15:13;34.50;39.50
14142;DHT22;7151;52.246;4.820;2022-07-24T16:17:40;34.50;39.40
14142;DHT22;7151;52.246;4.820;2022-07-24T16:20:07;34.40;39.40
14142;DHT22;7151;52.246;4.820;2022-07-24T16:22:33;34.40;39.30